sensor_id;sensor_type;location;lat;lon;timestamp;P1;durP1;ratioP1;P2;durP2;ratioP2
57599;SDS011;43426;43.594;24.334;2023-12-07T00:00:10;85.38;;;36.35;;
57599;SDS011;43426;43.594;24.334;2023-12-07T00:02:36;72.97;;;30.58;;
57599;SDS011;43426;43.594;24.334;2023-12-07T00:05:01;79.20;;;31.35;;
57599;SDS011;43426;43.594;24.334;2023-12-07T00:07:27;65.78;;;29.30;;
57599;SDS011;43426;43.594;24.334;2023-12-07T00:09:52;70.13;;;31.83;;
57599;SDS011;43426;43.594;24.334;2023-12-07T00:12:18;71.15;;;31.50;;
57599;SDS011;43426;43.594;24.334;2023-12-07T00:14:43;66.53;;;28.55;;
57599;SDS011;43426;43.594;24.334;2023-12-07T00:17:09;66.40;;;28.88;;
57599;SDS011;43426;43.594;24.334;2023-12-07T00:19:34;60.30;;;26.67;;
57599;SDS011;43426;43.594;24.334;2023-12-07T00:22:00;55.80;;;25.55;;
57599;SDS011;43426;43.594;24.334;2023-12-07T00:24:25;62.70;;;26.43;;
57599;SDS011;43426;43.594;24.334;2023-12-07T00:26:50;60.47;;;26.63;;
57599;SDS011;43426;43.594;24.334;2023-12-07T00:29:16;58.87;;;27.43;;
57599;SDS011;43426;43.594;24.334;2023-12-07T00:31:41;55.87;;;25.83;;
57599;SDS011;43426;43.594;24.334;2023-12-07T00:34:07;73.03;;;28.07;;
57599;SDS011;43426;43.594;24.334;2023-12-07T00:36:34;57.28;;;25.35;;
57599;SDS011;43426;43.594;24.334;2023-12-07T00:39:00;62.83;;;26.88;;
57599;SDS011;43426;43.594;24.334;2023-12-07T00:41:25;60.20;;;25.33;;
57599;SDS011;43426;43.594;24.334;2023-12-07T00:43:51;63.22;;;25.42;;
57599;SDS011;43426;43.594;24.334;2023-12-07T00:46:16;60.85;;;26.70;;
57599;SDS011;43426;43.594;24.334;2023-12-07T00:48:42;63.78;;;24.85;;
57599;SDS011;43426;43.594;24.334;2023-12-07T00:51:07;61.93;;;25.73;;
57599;SDS011;43426;43.594;24.334;2023-12-07T00:53:33;55.20;;;24.67;;
57599;SDS011;43426;43.594;24.334;2023-12-07T00:55:58;56.25;;;24.35;;
57599;SDS011;43426;43.594;24.334;2023-12-07T00:58:24;65.35;;;24.08;;
57599;SDS011;43426;43.594;24.334;2023-12-07T01:00:49;57.55;;;24.25;;
57599;SDS011;43426;43.594;24.334;2023-12-07T01:05:41;52.88;;;22.58;;
57599;SDS011;43426;43.594;24.334;2023-12-07T01:08:06;57.08;;;22.08;;
57599;SDS011;43426;43.594;24.334;2023-12-07T01:10:32;60.13;;;22.90;;
57599;SDS011;43426;43.594;24.334;2023-12-07T01:12:57;61.42;;;22.92;;
57599;SDS011;43426;43.594;24.334;2023-12-07T01:15:23;49.63;;;21.48;;
57599;SDS011;43426;43.594;24.334;2023-12-07T01:17:48;54.83;;;21.52;;
57599;SDS011;43426;43.594;24.334;2023-12-07T01:20:14;50.97;;;21.60;;
57599;SDS011;43426;43.594;24.334;2023-12-07T01:22:40;62.22;;;21.10;;
57599;SDS011;43426;43.594;24.334;2023-12-07T01:25:06;55.95;;;20.95;;
57599;SDS011;43426;43.594;24.334;2023-12-07T01:27:33;56.22;;;20.60;;
57599;SDS011;43426;43.594;24.334;2023-12-07T01:32:25;57.30;;;20.92;;
57599;SDS011;43426;43.594;24.334;2023-12-07T01:34:50;50.97;;;18.85;;
57599;SDS011;43426;43.594;24.334;2023-12-07T01:37:16;51.35;;;18.20;;
57599;SDS011;43426;43.594;24.334;2023-12-07T01:39:42;49.17;;;17.27;;
57599;SDS011;43426;43.594;24.334;2023-12-07T01:42:08;49.20;;;18.42;;
57599;SDS011;43426;43.594;24.334;2023-12-07T01:44:34;45.58;;;17.70;;
57599;SDS011;43426;43.594;24.334;2023-12-07T01:47:00;43.38;;;17.73;;
57599;SDS011;43426;43.594;24.334;2023-12-07T01:49:26;40.10;;;17.33;;
57599;SDS011;43426;43.594;24.334;2023-12-07T01:54:18;47.00;;;16.75;;
57599;SDS011;43426;43.594;24.334;2023-12-07T01:56:44;46.30;;;18.58;;
57599;SDS011;43426;43.594;24.334;2023-12-07T01:59:09;56.00;;;18.13;;
57599;SDS011;43426;43.594;24.334;2023-12-07T02:01:36;52.92;;;18.63;;
57599;SDS011;43426;43.594;24.334;2023-12-07T02:04:02;41.20;;;16.30;;
57599;SDS011;43426;43.594;24.334;2023-12-07T02:06:27;43.22;;;16.85;;
57599;SDS011;43426;43.594;24.334;2023-12-07T02:08:53;46.67;;;17.67;;
57599;SDS011;43426;43.594;24.334;2023-12-07T02:11:19;43.42;;;18.25;;
57599;SDS011;43426;43.594;24.334;2023-12-07T02:13:44;38.08;;;17.10;;
57599;SDS011;43426;43.594;24.334;2023-12-07T02:16:12;31.63;;;14.88;;
57599;SDS011;43426;43.594;24.334;2023-12-07T02:21:59;37.00;;;14.32;;
57599;SDS011;43426;43.594;24.334;2023-12-07T02:24:27;34.00;;;14.57;;
57599;SDS011;43426;43.594;24.334;2023-12-07T02:26:58;24.17;;;13.43;;
57599;SDS011;43426;43.594;24.334;2023-12-07T02:29:24;26.02;;;13.68;;
57599;SDS011;43426;43.594;24.334;2023-12-07T02:31:50;22.45;;;13.68;;
57599;SDS011;43426;43.594;24.334;2023-12-07T02:34:15;26.40;;;15.15;;
57599;SDS011;43426;43.594;24.334;2023-12-07T02:36:41;25.70;;;13.80;;
57599;SDS011;43426;43.594;24.334;2023-12-07T02:39:10;21.60;;;13.18;;
57599;SDS011;43426;43.594;24.334;2023-12-07T02:41:37;23.70;;;13.18;;
57599;SDS011;43426;43.594;24.334;2023-12-07T02:44:05;17.65;;;11.85;;
57599;SDS011;43426;43.594;24.334;2023-12-07T02:46:32;20.17;;;12.25;;
57599;SDS011;43426;43.594;24.334;2023-12-07T02:48:58;25.08;;;11.90;;
57599;SDS011;43426;43.594;24.334;2023-12-07T02:51:24;23.10;;;12.55;;
57599;SDS011;43426;43.594;24.334;2023-12-07T02:53:49;21.38;;;12.27;;
57599;SDS011;43426;43.594;24.334;2023-12-07T02:56:15;18.73;;;12.48;;
57599;SDS011;43426;43.594;24.334;2023-12-07T02:58:40;18.13;;;11.80;;
57599;SDS011;43426;43.594;24.334;2023-12-07T03:01:06;19.53;;;12.00;;
57599;SDS011;43426;43.594;24.334;2023-12-07T03:03:33;21.52;;;11.25;;
57599;SDS011;43426;43.594;24.334;2023-12-07T03:05:58;18.13;;;11.27;;
57599;SDS011;43426;43.594;24.334;2023-12-07T03:08:24;14.75;;;10.82;;
57599;SDS011;43426;43.594;24.334;2023-12-07T03:10:49;16.55;;;10.32;;
57599;SDS011;43426;43.594;24.334;2023-12-07T03:13:15;13.48;;;10.55;;
57599;SDS011;43426;43.594;24.334;2023-12-07T03:15:40;16.38;;;10.88;;
57599;SDS011;43426;43.594;24.334;2023-12-07T03:18:06;17.08;;;10.35;;
57599;SDS011;43426;43.594;24.334;2023-12-07T03:20:32;16.65;;;11.35;;
57599;SDS011;43426;43.594;24.334;2023-12-07T03:22:57;15.32;;;10.13;;
57599;SDS011;43426;43.594;24.334;2023-12-07T03:25:23;16.50;;;11.73;;
57599;SDS011;43426;43.594;24.334;2023-12-07T03:30:15;15.55;;;10.10;;
57599;SDS011;43426;43.594;24.334;2023-12-07T03:32:40;14.38;;;10.63;;
57599;SDS011;43426;43.594;24.334;2023-12-07T03:35:06;13.68;;;10.85;;
57599;SDS011;43426;43.594;24.334;2023-12-07T03:37:32;13.52;;;10.23;;
57599;SDS011;43426;43.594;24.334;2023-12-07T03:39:57;16.05;;;10.98;;
57599;SDS011;43426;43.594;24.334;2023-12-07T03:42:23;16.35;;;10.77;;
57599;SDS011;43426;43.594;24.334;2023-12-07T03:44:48;11.95;;;9.32;;
57599;SDS011;43426;43.594;24.334;2023-12-07T03:47:14;14.38;;;9.75;;
57599;SDS011;43426;43.594;24.334;2023-12-07T03:49:39;13.52;;;10.13;;
57599;SDS011;43426;43.594;24.334;2023-12-07T03:52:06;12.32;;;9.48;;
57599;SDS011;43426;43.594;24.334;2023-12-07T03:54:32;13.77;;;9.88;;
57599;SDS011;43426;43.594;24.334;2023-12-07T03:56:57;10.05;;;8.68;;
57599;SDS011;43426;43.594;24.334;2023-12-07T03:59:23;10.63;;;9.13;;
57599;SDS011;43426;43.594;24.334;2023-12-07T04:01:48;12.52;;;9.45;;
57599;SDS011;43426;43.594;24.334;2023-12-07T04:04:14;9.73;;;8.73;;
57599;SDS011;43426;43.594;24.334;2023-12-07T04:06:40;13.07;;;9.07;;
57599;SDS011;43426;43.594;24.334;2023-12-07T04:09:05;16.33;;;10.40;;
57599;SDS011;43426;43.594;24.334;2023-12-07T04:11:31;16.52;;;10.02;;
57599;SDS011;43426;43.594;24.334;2023-12-07T04:13:56;14.65;;;10.40;;
57599;SDS011;43426;43.594;24.334;2023-12-07T04:16:22;20.45;;;11.27;;
57599;SDS011;43426;43.594;24.334;2023-12-07T04:18:47;20.60;;;12.18;;
57599;SDS011;43426;43.594;24.334;2023-12-07T04:21:13;17.30;;;11.65;;
57599;SDS011;43426;43.594;24.334;2023-12-07T04:23:38;18.50;;;12.43;;
57599;SDS011;43426;43.594;24.334;2023-12-07T04:26:04;21.38;;;12.93;;
57599;SDS011;43426;43.594;24.334;2023-12-07T04:28:29;20.65;;;12.68;;
57599;SDS011;43426;43.594;24.334;2023-12-07T04:30:55;22.77;;;12.98;;
57599;SDS011;43426;43.594;24.334;2023-12-07T04:33:20;21.33;;;12.60;;
57599;SDS011;43426;43.594;24.334;2023-12-07T04:35:46;20.02;;;12.88;;
57599;SDS011;43426;43.594;24.334;2023-12-07T04:40:37;23.70;;;13.43;;
57599;SDS011;43426;43.594;24.334;2023-12-07T04:43:03;21.52;;;12.60;;
57599;SDS011;43426;43.594;24.334;2023-12-07T04:45:29;25.92;;;13.55;;
57599;SDS011;43426;43.594;24.334;2023-12-07T04:47:54;21.27;;;13.23;;
57599;SDS011;43426;43.594;24.334;2023-12-07T04:50:22;22.23;;;12.50;;
57599;SDS011;43426;43.594;24.334;2023-12-07T04:52:47;22.15;;;12.82;;
57599;SDS011;43426;43.594;24.334;2023-12-07T04:55:13;29.13;;;14.38;;
57599;SDS011;43426;43.594;24.334;2023-12-07T04:57:40;28.27;;;13.82;;
57599;SDS011;43426;43.594;24.334;2023-12-07T05:00:06;26.50;;;14.93;;
57599;SDS011;43426;43.594;24.334;2023-12-07T05:02:31;25.10;;;13.70;;
57599;SDS011;43426;43.594;24.334;2023-12-07T05:04:57;30.75;;;14.88;;
57599;SDS011;43426;43.594;24.334;2023-12-07T05:07:23;27.45;;;14.73;;
57599;SDS011;43426;43.594;24.334;2023-12-07T05:09:49;28.95;;;15.48;;
57599;SDS011;43426;43.594;24.334;2023-12-07T05:12:16;35.05;;;15.50;;
57599;SDS011;43426;43.594;24.334;2023-12-07T05:14:42;31.45;;;15.80;;
57599;SDS011;43426;43.594;24.334;2023-12-07T05:17:07;31.23;;;16.33;;
57599;SDS011;43426;43.594;24.334;2023-12-07T05:19:33;33.45;;;16.38;;
57599;SDS011;43426;43.594;24.334;2023-12-07T05:21:58;30.60;;;15.13;;
57599;SDS011;43426;43.594;24.334;2023-12-07T05:24:24;25.73;;;14.80;;
57599;SDS011;43426;43.594;24.334;2023-12-07T05:26:49;29.00;;;14.43;;
57599;SDS011;43426;43.594;24.334;2023-12-07T05:29:15;29.02;;;16.13;;
57599;SDS011;43426;43.594;24.334;2023-12-07T05:31:40;29.52;;;14.80;;
57599;SDS011;43426;43.594;24.334;2023-12-07T05:34:07;31.75;;;16.33;;
57599;SDS011;43426;43.594;24.334;2023-12-07T05:36:32;34.78;;;16.75;;
57599;SDS011;43426;43.594;24.334;2023-12-07T05:38:58;28.75;;;16.70;;
57599;SDS011;43426;43.594;24.334;2023-12-07T05:41:24;30.08;;;17.38;;
57599;SDS011;43426;43.594;24.334;2023-12-07T05:43:50;34.92;;;15.88;;
57599;SDS011;43426;43.594;24.334;2023-12-07T05:46:17;29.38;;;16.45;;
57599;SDS011;43426;43.594;24.334;2023-12-07T05:48:43;34.22;;;16.13;;
57599;SDS011;43426;43.594;24.334;2023-12-07T05:51:16;33.60;;;16.88;;
57599;SDS011;43426;43.594;24.334;2023-12-07T05:53:43;41.75;;;17.73;;
57599;SDS011;43426;43.594;24.334;2023-12-07T05:58:35;37.45;;;18.27;;
57599;SDS011;43426;43.594;24.334;2023-12-07T06:01:01;35.30;;;18.17;;
57599;SDS011;43426;43.594;24.334;2023-12-07T06:03:27;25.30;;;15.23;;
57599;SDS011;43426;43.594;24.334;2023-12-07T06:08:19;34.90;;;18.90;;
57599;SDS011;43426;43.594;24.334;2023-12-07T06:10:44;34.70;;;17.00;;
57599;SDS011;43426;43.594;24.334;2023-12-07T06:13:10;29.45;;;16.73;;
57599;SDS011;43426;43.594;24.334;2023-12-07T06:15:36;27.48;;;16.48;;
57599;SDS011;43426;43.594;24.334;2023-12-07T06:18:01;28.45;;;16.23;;
57599;SDS011;43426;43.594;24.334;2023-12-07T06:20:28;30.42;;;16.33;;
57599;SDS011;43426;43.594;24.334;2023-12-07T06:22:57;32.22;;;16.35;;
57599;SDS011;43426;43.594;24.334;2023-12-07T06:25:23;39.33;;;17.52;;
57599;SDS011;43426;43.594;24.334;2023-12-07T06:27:49;36.38;;;17.55;;
57599;SDS011;43426;43.594;24.334;2023-12-07T06:30:14;40.25;;;17.73;;
57599;SDS011;43426;43.594;24.334;2023-12-07T06:32:40;34.00;;;16.77;;
57599;SDS011;43426;43.594;24.334;2023-12-07T06:35:05;27.15;;;15.65;;
57599;SDS011;43426;43.594;24.334;2023-12-07T06:37:32;28.38;;;15.85;;
57599;SDS011;43426;43.594;24.334;2023-12-07T06:39:58;25.20;;;14.63;;
57599;SDS011;43426;43.594;24.334;2023-12-07T06:42:25;25.77;;;14.63;;
57599;SDS011;43426;43.594;24.334;2023-12-07T06:44:51;24.60;;;13.93;;
57599;SDS011;43426;43.594;24.334;2023-12-07T06:47:16;28.73;;;15.30;;
57599;SDS011;43426;43.594;24.334;2023-12-07T06:49:43;24.65;;;14.43;;
57599;SDS011;43426;43.594;24.334;2023-12-07T06:52:09;24.52;;;13.98;;
57599;SDS011;43426;43.594;24.334;2023-12-07T06:54:36;26.15;;;15.18;;
57599;SDS011;43426;43.594;24.334;2023-12-07T06:57:02;31.77;;;19.23;;
57599;SDS011;43426;43.594;24.334;2023-12-07T06:59:27;30.13;;;15.40;;
57599;SDS011;43426;43.594;24.334;2023-12-07T07:01:53;21.33;;;13.70;;
57599;SDS011;43426;43.594;24.334;2023-12-07T07:04:19;24.90;;;13.90;;
57599;SDS011;43426;43.594;24.334;2023-12-07T07:06:44;22.33;;;12.90;;
57599;SDS011;43426;43.594;24.334;2023-12-07T07:09:10;26.27;;;13.10;;
57599;SDS011;43426;43.594;24.334;2023-12-07T07:11:36;22.63;;;13.40;;
57599;SDS011;43426;43.594;24.334;2023-12-07T07:14:02;24.15;;;13.95;;
57599;SDS011;43426;43.594;24.334;2023-12-07T07:16:27;20.35;;;13.15;;
57599;SDS011;43426;43.594;24.334;2023-12-07T07:18:53;25.43;;;13.90;;
57599;SDS011;43426;43.594;24.334;2023-12-07T07:21:18;26.20;;;12.87;;
57599;SDS011;43426;43.594;24.334;2023-12-07T07:23:44;22.27;;;13.63;;
57599;SDS011;43426;43.594;24.334;2023-12-07T07:26:10;15.65;;;10.63;;
57599;SDS011;43426;43.594;24.334;2023-12-07T07:28:36;12.75;;;9.75;;
57599;SDS011;43426;43.594;24.334;2023-12-07T07:31:02;16.60;;;10.27;;
57599;SDS011;43426;43.594;24.334;2023-12-07T07:33:27;12.98;;;9.93;;
57599;SDS011;43426;43.594;24.334;2023-12-07T07:35:53;13.40;;;9.38;;
57599;SDS011;43426;43.594;24.334;2023-12-07T07:38:20;15.82;;;9.20;;
57599;SDS011;43426;43.594;24.334;2023-12-07T07:40:45;8.93;;;7.07;;
57599;SDS011;43426;43.594;24.334;2023-12-07T07:43:12;7.10;;;6.40;;
57599;SDS011;43426;43.594;24.334;2023-12-07T07:45:38;9.65;;;6.93;;
57599;SDS011;43426;43.594;24.334;2023-12-07T07:48:03;9.45;;;7.15;;
57599;SDS011;43426;43.594;24.334;2023-12-07T07:50:29;10.88;;;7.60;;
57599;SDS011;43426;43.594;24.334;2023-12-07T07:52:55;12.20;;;8.02;;
57599;SDS011;43426;43.594;24.334;2023-12-07T07:55:20;12.63;;;8.68;;
57599;SDS011;43426;43.594;24.334;2023-12-07T07:57:46;16.92;;;8.38;;
57599;SDS011;43426;43.594;24.334;2023-12-07T08:00:12;12.82;;;8.55;;
57599;SDS011;43426;43.594;24.334;2023-12-07T08:02:38;11.60;;;8.40;;
57599;SDS011;43426;43.594;24.334;2023-12-07T08:05:04;12.27;;;7.65;;
57599;SDS011;43426;43.594;24.334;2023-12-07T08:07:29;10.85;;;7.15;;
57599;SDS011;43426;43.594;24.334;2023-12-07T08:18:58;10.57;;;7.13;;
57599;SDS011;43426;43.594;24.334;2023-12-07T08:21:24;13.32;;;7.63;;
57599;SDS011;43426;43.594;24.334;2023-12-07T08:23:50;13.43;;;7.05;;
57599;SDS011;43426;43.594;24.334;2023-12-07T08:26:16;11.27;;;7.32;;
57599;SDS011;43426;43.594;24.334;2023-12-07T08:28:42;13.85;;;7.32;;
57599;SDS011;43426;43.594;24.334;2023-12-07T08:31:07;11.48;;;7.05;;
57599;SDS011;43426;43.594;24.334;2023-12-07T08:33:33;12.50;;;6.88;;
57599;SDS011;43426;43.594;24.334;2023-12-07T08:36:04;10.77;;;7.60;;
57599;SDS011;43426;43.594;24.334;2023-12-07T08:38:33;9.90;;;6.78;;
57599;SDS011;43426;43.594;24.334;2023-12-07T08:40:58;7.03;;;5.95;;
57599;SDS011;43426;43.594;24.334;2023-12-07T08:43:24;8.48;;;6.13;;
57599;SDS011;43426;43.594;24.334;2023-12-07T08:45:50;6.43;;;5.15;;
57599;SDS011;43426;43.594;24.334;2023-12-07T08:48:16;7.90;;;5.97;;
57599;SDS011;43426;43.594;24.334;2023-12-07T08:50:41;8.57;;;6.45;;
57599;SDS011;43426;43.594;24.334;2023-12-07T08:53:07;10.45;;;7.22;;
57599;SDS011;43426;43.594;24.334;2023-12-07T08:55:32;9.13;;;7.07;;
57599;SDS011;43426;43.594;24.334;2023-12-07T08:57:58;8.40;;;7.05;;
57599;SDS011;43426;43.594;24.334;2023-12-07T09:00:25;7.63;;;6.50;;
57599;SDS011;43426;43.594;24.334;2023-12-07T09:02:51;6.05;;;5.45;;
57599;SDS011;43426;43.594;24.334;2023-12-07T09:05:17;7.03;;;6.00;;
57599;SDS011;43426;43.594;24.334;2023-12-07T09:07:43;6.13;;;5.50;;
57599;SDS011;43426;43.594;24.334;2023-12-07T09:10:09;6.18;;;5.20;;
57599;SDS011;43426;43.594;24.334;2023-12-07T09:12:35;6.93;;;5.70;;
57599;SDS011;43426;43.594;24.334;2023-12-07T09:15:03;5.90;;;5.13;;
57599;SDS011;43426;43.594;24.334;2023-12-07T09:17:30;6.60;;;5.47;;
57599;SDS011;43426;43.594;24.334;2023-12-07T09:19:56;7.20;;;5.50;;
57599;SDS011;43426;43.594;24.334;2023-12-07T09:22:21;5.10;;;4.60;;
57599;SDS011;43426;43.594;24.334;2023-12-07T09:24:47;6.82;;;5.60;;
57599;SDS011;43426;43.594;24.334;2023-12-07T09:27:15;6.32;;;5.55;;
57599;SDS011;43426;43.594;24.334;2023-12-07T09:29:41;6.20;;;5.60;;
57599;SDS011;43426;43.594;24.334;2023-12-07T09:32:07;6.75;;;5.47;;
57599;SDS011;43426;43.594;24.334;2023-12-07T09:34:32;7.65;;;6.00;;
57599;SDS011;43426;43.594;24.334;2023-12-07T09:37:07;7.53;;;5.60;;
57599;SDS011;43426;43.594;24.334;2023-12-07T09:39:34;7.88;;;6.38;;
57599;SDS011;43426;43.594;24.334;2023-12-07T09:41:59;7.53;;;5.63;;
57599;SDS011;43426;43.594;24.334;2023-12-07T09:44:26;7.13;;;5.78;;
57599;SDS011;43426;43.594;24.334;2023-12-07T09:46:51;6.68;;;5.53;;
57599;SDS011;43426;43.594;24.334;2023-12-07T09:49:17;5.25;;;4.75;;
57599;SDS011;43426;43.594;24.334;2023-12-07T09:51:43;7.38;;;5.38;;
57599;SDS011;43426;43.594;24.334;2023-12-07T09:54:09;7.88;;;5.80;;
57599;SDS011;43426;43.594;24.334;2023-12-07T09:59:01;6.30;;;5.60;;
57599;SDS011;43426;43.594;24.334;2023-12-07T10:01:30;6.63;;;5.90;;
57599;SDS011;43426;43.594;24.334;2023-12-07T10:04:15;8.50;;;6.07;;
57599;SDS011;43426;43.594;24.334;2023-12-07T10:06:45;7.93;;;7.00;;
57599;SDS011;43426;43.594;24.334;2023-12-07T10:09:15;9.70;;;6.45;;
57599;SDS011;43426;43.594;24.334;2023-12-07T10:11:41;9.05;;;6.85;;
57599;SDS011;43426;43.594;24.334;2023-12-07T10:14:08;11.05;;;6.97;;
57599;SDS011;43426;43.594;24.334;2023-12-07T10:16:34;8.10;;;6.72;;
57599;SDS011;43426;43.594;24.334;2023-12-07T10:19:13;8.30;;;7.35;;
57599;SDS011;43426;43.594;24.334;2023-12-07T10:21:38;8.57;;;6.97;;
57599;SDS011;43426;43.594;24.334;2023-12-07T10:24:04;8.70;;;6.80;;
57599;SDS011;43426;43.594;24.334;2023-12-07T10:26:30;8.75;;;6.43;;
57599;SDS011;43426;43.594;24.334;2023-12-07T10:28:55;10.33;;;7.13;;
57599;SDS011;43426;43.594;24.334;2023-12-07T10:31:21;9.45;;;7.65;;
57599;SDS011;43426;43.594;24.334;2023-12-07T10:33:49;9.00;;;7.85;;
57599;SDS011;43426;43.594;24.334;2023-12-07T10:36:14;8.50;;;6.75;;
57599;SDS011;43426;43.594;24.334;2023-12-07T10:38:40;10.30;;;8.60;;
57599;SDS011;43426;43.594;24.334;2023-12-07T10:41:10;10.23;;;8.20;;
57599;SDS011;43426;43.594;24.334;2023-12-07T10:43:38;9.20;;;8.00;;
57599;SDS011;43426;43.594;24.334;2023-12-07T10:46:07;9.00;;;7.53;;
57599;SDS011;43426;43.594;24.334;2023-12-07T10:48:34;8.82;;;7.28;;
57599;SDS011;43426;43.594;24.334;2023-12-07T10:51:02;19.95;;;7.85;;
57599;SDS011;43426;43.594;24.334;2023-12-07T10:53:42;13.98;;;10.20;;
57599;SDS011;43426;43.594;24.334;2023-12-07T10:59:06;10.40;;;7.22;;
57599;SDS011;43426;43.594;24.334;2023-12-07T11:01:33;7.85;;;5.93;;
57599;SDS011;43426;43.594;24.334;2023-12-07T11:04:00;9.50;;;7.18;;
57599;SDS011;43426;43.594;24.334;2023-12-07T11:06:26;8.20;;;6.50;;
57599;SDS011;43426;43.594;24.334;2023-12-07T11:08:54;9.98;;;7.57;;
57599;SDS011;43426;43.594;24.334;2023-12-07T11:14:21;10.30;;;7.80;;
57599;SDS011;43426;43.594;24.334;2023-12-07T11:16:48;7.72;;;6.95;;
57599;SDS011;43426;43.594;24.334;2023-12-07T11:21:54;13.63;;;8.48;;
57599;SDS011;43426;43.594;24.334;2023-12-07T11:24:22;11.57;;;8.27;;
57599;SDS011;43426;43.594;24.334;2023-12-07T11:26:48;13.25;;;8.98;;
57599;SDS011;43426;43.594;24.334;2023-12-07T11:29:19;13.95;;;8.90;;
57599;SDS011;43426;43.594;24.334;2023-12-07T11:31:45;11.90;;;7.80;;
57599;SDS011;43426;43.594;24.334;2023-12-07T11:34:11;9.73;;;7.32;;
57599;SDS011;43426;43.594;24.334;2023-12-07T11:36:39;9.80;;;7.68;;
57599;SDS011;43426;43.594;24.334;2023-12-07T11:41:34;10.90;;;8.40;;
57599;SDS011;43426;43.594;24.334;2023-12-07T11:44:09;9.55;;;7.30;;
57599;SDS011;43426;43.594;24.334;2023-12-07T11:46:37;11.45;;;8.27;;
57599;SDS011;43426;43.594;24.334;2023-12-07T11:49:02;14.02;;;6.93;;
57599;SDS011;43426;43.594;24.334;2023-12-07T11:51:29;12.98;;;8.00;;
57599;SDS011;43426;43.594;24.334;2023-12-07T11:56:20;10.02;;;6.93;;
57599;SDS011;43426;43.594;24.334;2023-12-07T11:58:47;15.48;;;10.68;;
57599;SDS011;43426;43.594;24.334;2023-12-07T12:01:13;13.73;;;10.80;;
57599;SDS011;43426;43.594;24.334;2023-12-07T12:03:39;10.52;;;9.40;;
57599;SDS011;43426;43.594;24.334;2023-12-07T12:06:07;9.73;;;6.57;;
57599;SDS011;43426;43.594;24.334;2023-12-07T12:08:35;8.52;;;6.65;;
57599;SDS011;43426;43.594;24.334;2023-12-07T12:11:00;9.73;;;8.73;;
57599;SDS011;43426;43.594;24.334;2023-12-07T12:13:29;9.32;;;7.65;;
57599;SDS011;43426;43.594;24.334;2023-12-07T12:15:56;9.98;;;8.18;;
57599;SDS011;43426;43.594;24.334;2023-12-07T12:18:22;10.00;;;8.27;;
57599;SDS011;43426;43.594;24.334;2023-12-07T12:20:50;10.23;;;7.75;;
57599;SDS011;43426;43.594;24.334;2023-12-07T12:23:16;8.35;;;6.88;;
57599;SDS011;43426;43.594;24.334;2023-12-07T12:25:42;9.65;;;7.22;;
57599;SDS011;43426;43.594;24.334;2023-12-07T12:28:08;13.98;;;8.98;;
57599;SDS011;43426;43.594;24.334;2023-12-07T12:30:34;12.98;;;9.68;;
57599;SDS011;43426;43.594;24.334;2023-12-07T12:33:00;9.25;;;7.72;;
57599;SDS011;43426;43.594;24.334;2023-12-07T12:35:26;9.02;;;7.13;;
57599;SDS011;43426;43.594;24.334;2023-12-07T12:37:51;7.00;;;6.30;;
57599;SDS011;43426;43.594;24.334;2023-12-07T12:40:18;6.95;;;5.47;;
57599;SDS011;43426;43.594;24.334;2023-12-07T12:42:48;7.72;;;6.43;;
57599;SDS011;43426;43.594;24.334;2023-12-07T12:45:15;7.18;;;5.88;;
57599;SDS011;43426;43.594;24.334;2023-12-07T12:47:43;7.70;;;5.40;;
57599;SDS011;43426;43.594;24.334;2023-12-07T12:50:10;6.22;;;5.63;;
57599;SDS011;43426;43.594;24.334;2023-12-07T12:52:36;6.78;;;6.15;;
57599;SDS011;43426;43.594;24.334;2023-12-07T12:55:13;5.85;;;5.35;;
57599;SDS011;43426;43.594;24.334;2023-12-07T12:57:39;6.57;;;5.95;;
57599;SDS011;43426;43.594;24.334;2023-12-07T13:00:04;6.40;;;5.88;;
57599;SDS011;43426;43.594;24.334;2023-12-07T13:02:32;7.22;;;6.53;;
57599;SDS011;43426;43.594;24.334;2023-12-07T13:04:59;5.43;;;4.93;;
57599;SDS011;43426;43.594;24.334;2023-12-07T13:07:24;18.20;;;9.63;;
57599;SDS011;43426;43.594;24.334;2023-12-07T13:09:50;15.57;;;11.15;;
57599;SDS011;43426;43.594;24.334;2023-12-07T13:12:16;14.90;;;10.82;;
57599;SDS011;43426;43.594;24.334;2023-12-07T13:14:41;8.07;;;6.47;;
57599;SDS011;43426;43.594;24.334;2023-12-07T13:17:07;12.50;;;8.52;;
57599;SDS011;43426;43.594;24.334;2023-12-07T13:19:33;14.23;;;8.32;;
57599;SDS011;43426;43.594;24.334;2023-12-07T13:21:59;10.95;;;7.63;;
57599;SDS011;43426;43.594;24.334;2023-12-07T13:26:51;9.30;;;7.55;;
57599;SDS011;43426;43.594;24.334;2023-12-07T13:29:17;10.30;;;7.30;;
57599;SDS011;43426;43.594;24.334;2023-12-07T13:31:42;6.85;;;6.13;;
57599;SDS011;43426;43.594;24.334;2023-12-07T13:34:08;7.50;;;5.93;;
57599;SDS011;43426;43.594;24.334;2023-12-07T13:36:33;6.88;;;6.18;;
57599;SDS011;43426;43.594;24.334;2023-12-07T13:39:00;6.90;;;5.88;;
57599;SDS011;43426;43.594;24.334;2023-12-07T13:41:29;7.25;;;5.95;;
57599;SDS011;43426;43.594;24.334;2023-12-07T13:43:54;8.02;;;6.15;;
57599;SDS011;43426;43.594;24.334;2023-12-07T13:46:20;8.93;;;6.45;;
57599;SDS011;43426;43.594;24.334;2023-12-07T13:48:45;7.70;;;5.88;;
57599;SDS011;43426;43.594;24.334;2023-12-07T13:51:12;7.95;;;5.65;;
57599;SDS011;43426;43.594;24.334;2023-12-07T13:53:37;6.55;;;5.97;;
57599;SDS011;43426;43.594;24.334;2023-12-07T13:56:03;8.95;;;6.97;;
57599;SDS011;43426;43.594;24.334;2023-12-07T13:58:30;7.97;;;7.10;;
57599;SDS011;43426;43.594;24.334;2023-12-07T14:00:55;7.43;;;6.65;;
57599;SDS011;43426;43.594;24.334;2023-12-07T14:03:21;7.18;;;6.47;;
57599;SDS011;43426;43.594;24.334;2023-12-07T14:05:46;8.03;;;6.60;;
57599;SDS011;43426;43.594;24.334;2023-12-07T14:08:13;7.70;;;6.18;;
57599;SDS011;43426;43.594;24.334;2023-12-07T14:10:38;6.53;;;5.93;;
57599;SDS011;43426;43.594;24.334;2023-12-07T14:13:04;7.28;;;6.68;;
57599;SDS011;43426;43.594;24.334;2023-12-07T14:15:29;6.55;;;5.85;;
57599;SDS011;43426;43.594;24.334;2023-12-07T14:17:57;6.07;;;5.25;;
57599;SDS011;43426;43.594;24.334;2023-12-07T14:20:24;7.20;;;5.43;;
57599;SDS011;43426;43.594;24.334;2023-12-07T14:22:52;8.73;;;6.05;;
57599;SDS011;43426;43.594;24.334;2023-12-07T14:25:18;6.40;;;5.80;;
57599;SDS011;43426;43.594;24.334;2023-12-07T14:27:44;7.45;;;5.78;;
57599;SDS011;43426;43.594;24.334;2023-12-07T14:30:10;6.50;;;5.40;;
57599;SDS011;43426;43.594;24.334;2023-12-07T14:32:36;9.50;;;5.90;;
57599;SDS011;43426;43.594;24.334;2023-12-07T14:35:02;7.50;;;6.40;;
57599;SDS011;43426;43.594;24.334;2023-12-07T14:37:27;16.48;;;9.80;;
57599;SDS011;43426;43.594;24.334;2023-12-07T14:39:53;11.35;;;9.98;;
57599;SDS011;43426;43.594;24.334;2023-12-07T14:42:19;17.48;;;10.25;;
57599;SDS011;43426;43.594;24.334;2023-12-07T14:44:44;12.23;;;10.00;;
57599;SDS011;43426;43.594;24.334;2023-12-07T14:47:10;9.45;;;8.52;;
57599;SDS011;43426;43.594;24.334;2023-12-07T14:49:35;10.18;;;7.72;;
57599;SDS011;43426;43.594;24.334;2023-12-07T14:52:01;10.82;;;8.05;;
57599;SDS011;43426;43.594;24.334;2023-12-07T14:54:27;8.52;;;6.93;;
57599;SDS011;43426;43.594;24.334;2023-12-07T14:56:53;10.20;;;7.35;;
57599;SDS011;43426;43.594;24.334;2023-12-07T14:59:18;8.77;;;7.38;;